Time;durP1;ratioP1;P1;durP2;ratioP2;P2;SDS_P1;SDS_P2;PMS_P1;PMS_P2;Temp;Humidity;BMP_temperature;BMP_pressure;BME280_temperature;BME280_humidity;BME280_pressure;Samples;Min_cycle;Max_cycle;Signal;HPM_P1;HPM_P2
2023/05/17 00:01:02;;;;;;;1.50;0.80;;;8.60;99.90;;;;;;5072600;28;20203;-63
2023/05/17 00:03:28;;;;;;;0.93;0.93;;;8.60;99.90;;;;;;5073345;28;20225;-63
2023/05/17 00:05:55;;;;;;;0.80;0.80;;;8.60;99.90;;;;;;5073192;28;20200;-64
2023/05/17 00:08:23;;;;;;;1.60;0.85;;;8.60;99.90;;;;;;5073149;28;20203;-63
2023/05/17 00:10:50;;;;;;;0.80;0.80;;;8.60;99.90;;;;;;5072116;28;20554;-63
2023/05/17 00:13:17;;;;;;;1.00;0.93;;;8.60;99.90;;;;;;5072941;28;20231;-63
2023/05/17 00:15:44;;;;;;;0.90;0.90;;;8.60;99.90;;;;;;5073152;28;20215;-62
2023/05/17 00:18:11;;;;;;;1.10;1.10;;;8.50;99.90;;;;;;5073275;28;20203;-63
2023/05/17 00:20:38;;;;;;;1.10;1.00;;;8.60;99.90;;;;;;5065755;28;20218;-63
2023/05/17 00:23:04;;;;;;;1.10;1.00;;;8.50;99.90;;;;;;5072500;28;20223;-63
2023/05/17 00:25:32;;;;;;;1.00;1.00;;;8.50;99.90;;;;;;5072893;28;20209;-63
2023/05/17 00:27:59;;;;;;;2.10;0.98;;;8.40;99.90;;;;;;5071863;28;20203;-63
2023/05/17 00:30:26;;;;;;;0.98;0.98;;;8.30;99.90;;;;;;5071652;28;20203;-63
2023/05/17 00:32:53;;;;;;;1.23;1.00;;;8.40;99.90;;;;;;5072731;28;20219;-63
2023/05/17 00:35:20;;;;;;;1.30;1.20;;;8.40;99.90;;;;;;5072608;28;20608;-63
2023/05/17 00:37:47;;;;;;;0.70;0.70;;;8.30;99.90;;;;;;5072707;28;20225;-63
2023/05/17 00:40:15;;;;;;;0.93;0.85;;;8.30;99.90;;;;;;5071437;28;20254;-63
2023/05/17 00:42:43;;;;;;;0.80;0.80;;;8.20;99.90;;;;;;5072506;28;20309;-62
2023/05/17 00:45:10;;;;;;;0.73;0.73;;;8.20;99.90;;;;;;5072702;28;20200;-63
2023/05/17 00:47:37;;;;;;;0.75;0.75;;;8.20;99.90;;;;;;5072364;28;20199;-64
2023/05/17 00:50:05;;;;;;;1.33;0.98;;;8.20;99.90;;;;;;5071298;28;20207;-63
2023/05/17 00:52:32;;;;;;;1.10;1.00;;;8.30;99.90;;;;;;5072082;28;20235;-64
2023/05/17 00:54:59;;;;;;;1.00;1.00;;;8.20;99.90;;;;;;5072318;28;20242;-63
2023/05/17 00:57:27;;;;;;;0.80;0.80;;;8.20;99.90;;;;;;5071941;28;20211;-63
2023/05/17 00:59:56;;;;;;;1.00;1.00;;;8.10;99.90;;;;;;5071126;28;20662;-63
2023/05/17 01:02:23;;;;;;;0.82;0.82;;;8.20;99.90;;;;;;5071984;28;20246;-63
2023/05/17 01:04:50;;;;;;;1.27;1.10;;;8.10;99.90;;;;;;5071726;28;20200;-63
2023/05/17 01:07:17;;;;;;;1.13;1.03;;;8.10;99.90;;;;;;5071878;28;20195;-63
2023/05/17 01:09:45;;;;;;;0.90;0.90;;;8.10;99.90;;;;;;5070739;28;20205;-63
2023/05/17 01:12:24;;;;;;;1.20;1.10;;;8.00;99.90;;;;;;5071714;28;20213;-63
2023/05/17 01:15:02;;;;;;;0.80;0.80;;;8.00;99.90;;;;;;5071868;28;20229;-63
2023/05/17 01:17:35;;;;;;;0.75;0.75;;;8.00;99.90;;;;;;5071927;28;20203;-63
2023/05/17 01:20:09;;;;;;;0.90;0.90;;;7.90;99.90;;;;;;5071015;28;20265;-63
2023/05/17 01:22:44;;;;;;;0.90;0.90;;;7.90;99.90;;;;;;5076002;28;20249;-63
2023/05/17 01:25:26;;;;;;;0.80;0.80;;;7.90;99.90;;;;;;5073826;28;20199;-64
2023/05/17 01:27:56;;;;;;;0.90;0.90;;;7.90;99.90;;;;;;5072779;28;20217;-64
2023/05/17 01:30:26;;;;;;;1.08;0.98;;;7.80;99.90;;;;;;5074016;28;20207;-63
2023/05/17 01:32:55;;;;;;;1.00;1.00;;;7.70;99.90;;;;;;5073957;28;20231;-62
2023/05/17 01:35:21;;;;;;;1.10;0.93;;;7.70;99.90;;;;;;5073763;28;20230;-63
2023/05/17 01:37:48;;;;;;;0.90;0.90;;;7.70;99.90;;;;;;5073266;28;20213;-62
2023/05/17 01:40:18;;;;;;;1.27;1.13;;;7.70;99.90;;;;;;5070431;28;20759;-63
2023/05/17 01:42:48;;;;;;;1.00;1.00;;;7.70;99.90;;;;;;5071508;28;20233;-63
2023/05/17 01:45:23;;;;;;;0.93;0.93;;;7.70;99.90;;;;;;5071227;28;20199;-63
2023/05/17 01:48:00;;;;;;;1.10;1.00;;;7.70;99.90;;;;;;5071247;28;20715;-63
2023/05/17 01:50:30;;;;;;;1.17;0.75;;;7.70;99.90;;;;;;5070088;28;20207;-64
2023/05/17 01:53:05;;;;;;;1.00;1.00;;;7.70;99.90;;;;;;5070636;28;20238;-62
2023/05/17 01:55:42;;;;;;;1.23;1.00;;;7.60;99.90;;;;;;5071138;28;20237;-63
2023/05/17 01:58:11;;;;;;;0.95;0.95;;;7.60;99.90;;;;;;5066139;28;20203;-62
2023/05/17 02:00:41;;;;;;;0.82;0.82;;;7.60;99.90;;;;;;5070357;28;20211;-63
2023/05/17 02:03:12;;;;;;;0.90;0.90;;;7.60;99.90;;;;;;5070978;28;20223;-63
2023/05/17 02:05:38;;;;;;;1.00;1.00;;;7.60;99.90;;;;;;5071175;28;20203;-63
2023/05/17 02:08:05;;;;;;;2.37;1.00;;;7.50;99.90;;;;;;5070985;28;20226;-63
2023/05/17 02:10:32;;;;;;;0.80;0.80;;;7.50;99.90;;;;;;5070184;28;20583;-63
2023/05/17 02:12:59;;;;;;;0.80;0.80;;;7.50;99.90;;;;;;5070900;28;20239;-63
2023/05/17 02:15:26;;;;;;;0.90;0.90;;;7.50;99.90;;;;;;5070952;28;20793;-63
2023/05/17 02:17:54;;;;;;;0.50;0.50;;;7.60;99.90;;;;;;5071337;28;20604;-62
2023/05/17 02:20:21;;;;;;;0.90;0.90;;;7.50;99.90;;;;;;5070683;28;20554;-62
2023/05/17 02:22:48;;;;;;;1.10;1.10;;;7.60;99.90;;;;;;5070976;28;20721;-62
2023/05/17 02:25:15;;;;;;;0.85;0.85;;;7.60;99.90;;;;;;5071326;28;20211;-63
2023/05/17 02:27:42;;;;;;;0.87;0.87;;;7.60;99.90;;;;;;5070704;28;20665;-63
2023/05/17 02:30:09;;;;;;;0.87;0.87;;;7.70;99.90;;;;;;5070979;28;20297;-62
2023/05/17 02:32:37;;;;;;;1.03;0.87;;;7.50;99.90;;;;;;5070950;28;20226;-63
2023/05/17 02:35:06;;;;;;;0.80;0.80;;;7.50;99.90;;;;;;5070663;28;20394;-63
2023/05/17 02:37:33;;;;;;;0.90;0.90;;;7.50;99.90;;;;;;5070838;28;20209;-63
2023/05/17 02:40:00;;;;;;;0.70;0.70;;;7.60;99.90;;;;;;5070130;28;20233;-64
2023/05/17 02:42:26;;;;;;;1.00;1.00;;;7.60;99.90;;;;;;5070431;28;20749;-64
2023/05/17 02:44:55;;;;;;;0.90;0.90;;;7.60;99.90;;;;;;5070674;28;20242;-62
2023/05/17 02:47:22;;;;;;;0.90;0.90;;;7.60;99.90;;;;;;5070699;28;20220;-63
2023/05/17 02:49:49;;;;;;;0.90;0.90;;;7.60;99.90;;;;;;5069439;28;20745;-63
2023/05/17 02:52:17;;;;;;;0.73;0.73;;;7.70;99.90;;;;;;5073788;28;20207;-63
2023/05/17 02:54:44;;;;;;;0.80;0.80;;;7.70;99.90;;;;;;5074675;28;20596;-62
2023/05/17 02:57:11;;;;;;;0.80;0.80;;;7.60;99.90;;;;;;5074561;28;20209;-63
2023/05/17 02:59:38;;;;;;;0.93;0.93;;;7.60;99.90;;;;;;5074015;28;20680;-61
2023/05/17 03:02:05;;;;;;;0.60;0.60;;;7.60;99.90;;;;;;5073913;28;20209;-64
2023/05/17 03:04:33;;;;;;;0.97;0.97;;;7.60;99.90;;;;;;5074207;28;20210;-63
2023/05/17 03:06:59;;;;;;;0.80;0.80;;;7.60;99.90;;;;;;5074527;28;20233;-63
2023/05/17 03:09:28;;;;;;;0.90;0.90;;;7.50;99.90;;;;;;5073702;28;20203;-62
2023/05/17 03:11:55;;;;;;;0.80;0.80;;;7.50;99.90;;;;;;5073867;28;20682;-62
2023/05/17 03:14:22;;;;;;;0.80;0.80;;;7.50;99.90;;;;;;5073936;28;20824;-63
2023/05/17 03:16:49;;;;;;;1.13;0.98;;;7.50;99.90;;;;;;5074043;28;20225;-64
2023/05/17 03:19:16;;;;;;;0.70;0.70;;;7.50;99.90;;;;;;5073266;28;20199;-63
2023/05/17 03:21:43;;;;;;;0.82;0.82;;;7.40;99.90;;;;;;5073710;28;20229;-63
2023/05/17 03:24:09;;;;;;;0.83;0.80;;;7.40;99.90;;;;;;5073966;28;20219;-62
2023/05/17 03:26:38;;;;;;;0.90;0.90;;;7.50;99.90;;;;;;5074039;28;20205;-62
2023/05/17 03:29:04;;;;;;;0.80;0.80;;;7.40;99.90;;;;;;5073705;28;20203;-62
2023/05/17 03:31:31;;;;;;;0.93;0.93;;;7.40;99.90;;;;;;5073822;28;20647;-62
2023/05/17 03:33:58;;;;;;;0.90;0.83;;;7.40;99.90;;;;;;5073714;28;20227;-62
2023/05/17 03:36:25;;;;;;;0.80;0.80;;;7.40;99.90;;;;;;5075036;28;20231;-63
2023/05/17 03:38:52;;;;;;;0.87;0.87;;;7.50;99.90;;;;;;5074647;28;20203;-63
2023/05/17 03:41:19;;;;;;;0.80;0.80;;;7.50;99.90;;;;;;5072785;28;20199;-63
2023/05/17 03:43:47;;;;;;;0.80;0.80;;;7.50;99.90;;;;;;5073581;28;20262;-62
2023/05/17 03:46:14;;;;;;;1.37;1.03;;;7.40;99.90;;;;;;5073804;28;20577;-62
2023/05/17 03:48:41;;;;;;;0.80;0.80;;;7.40;99.90;;;;;;5074129;28;20277;-62
2023/05/17 03:51:07;;;;;;;0.90;0.90;;;7.40;99.90;;;;;;5072477;28;20943;-63
2023/05/17 03:53:39;;;;;;;0.80;0.80;;;7.40;99.90;;;;;;5073363;28;20313;-63
2023/05/17 03:56:06;;;;;;;0.80;0.80;;;7.40;99.90;;;;;;5073461;28;20318;-63
2023/05/17 03:58:33;;;;;;;1.70;1.20;;;7.40;99.90;;;;;;5073698;28;20207;-63
2023/05/17 04:01:01;;;;;;;0.80;0.80;;;7.40;99.90;;;;;;5072578;28;20210;-62
2023/05/17 04:03:28;;;;;;;1.02;1.02;;;7.40;99.90;;;;;;5073192;28;20235;-63
2023/05/17 04:06:01;;;;;;;0.87;0.87;;;7.40;99.90;;;;;;5073379;28;20621;-63
2023/05/17 04:08:28;;;;;;;0.90;0.90;;;7.40;99.90;;;;;;5073396;28;20207;-63
2023/05/17 04:10:55;;;;;;;0.90;0.90;;;7.40;99.90;;;;;;5072248;28;20199;-63
2023/05/17 04:13:21;;;;;;;0.93;0.93;;;7.40;99.90;;;;;;5072739;28;20231;-63
2023/05/17 04:15:48;;;;;;;0.80;0.80;;;7.40;99.90;;;;;;5073064;28;20227;-63
2023/05/17 04:18:16;;;;;;;0.80;0.80;;;7.40;99.90;;;;;;5073216;28;20209;-63
2023/05/17 04:20:43;;;;;;;0.80;0.80;;;7.50;99.90;;;;;;5072237;28;20203;-62
2023/05/17 04:23:10;;;;;;;0.80;0.80;;;7.40;99.90;;;;;;5072813;28;20229;-63
2023/05/17 04:25:37;;;;;;;0.80;0.80;;;7.40;99.90;;;;;;5072793;28;20210;-62
2023/05/17 04:28:04;;;;;;;1.08;1.00;;;7.40;99.90;;;;;;5069021;28;20215;-62
2023/05/17 04:30:31;;;;;;;1.00;1.00;;;7.50;99.90;;;;;;5064762;28;20203;-62
2023/05/17 04:32:58;;;;;;;0.70;0.70;;;7.50;99.90;;;;;;5072576;28;20717;-62
2023/05/17 04:35:26;;;;;;;0.83;0.83;;;7.50;99.90;;;;;;5072605;28;20233;-63
2023/05/17 04:37:53;;;;;;;0.90;0.90;;;7.60;99.90;;;;;;5068617;28;20289;-63
2023/05/17 04:40:20;;;;;;;0.80;0.80;;;7.60;99.90;;;;;;5071667;28;20629;-62
2023/05/17 04:42:47;;;;;;;0.88;0.88;;;7.80;99.90;;;;;;5072336;28;20215;-63
2023/05/17 04:45:14;;;;;;;0.88;0.88;;;7.80;99.90;;;;;;5072370;28;20202;-63
2023/05/17 04:47:42;;;;;;;0.82;0.82;;;7.80;99.90;;;;;;5072965;28;20203;-63
2023/05/17 04:50:10;;;;;;;1.00;1.00;;;7.80;99.90;;;;;;5071463;28;20747;-62
2023/05/17 04:52:38;;;;;;;0.80;0.80;;;7.90;99.90;;;;;;5072367;28;20263;-64
2023/05/17 04:55:06;;;;;;;0.83;0.70;;;8.00;99.90;;;;;;5068110;28;20678;-62
2023/05/17 04:57:32;;;;;;;0.93;0.93;;;8.10;99.90;;;;;;5071412;28;20213;-64
2023/05/17 04:59:59;;;;;;;0.80;0.80;;;8.20;99.90;;;;;;5073419;28;20207;-62
2023/05/17 05:02:26;;;;;;;0.73;0.73;;;8.20;99.90;;;;;;5063073;28;20709;-62
2023/05/17 05:04:53;;;;;;;1.03;0.90;;;8.30;99.90;;;;;;5065730;28;20199;-62
2023/05/17 05:07:20;;;;;;;0.85;0.85;;;8.40;99.90;;;;;;5078416;28;20205;-60
2023/05/17 05:09:48;;;;;;;1.00;1.00;;;8.50;99.90;;;;;;5063837;28;20214;-61
2023/05/17 05:12:15;;;;;;;1.13;1.02;;;8.70;99.90;;;;;;5054527;28;20580;-62
2023/05/17 05:14:42;;;;;;;0.83;0.83;;;8.80;99.90;;;;;;5060795;28;20309;-62
2023/05/17 05:17:09;;;;;;;0.85;0.85;;;9.00;99.90;;;;;;5066766;28;21013;-62
2023/05/17 05:19:36;;;;;;;0.95;0.90;;;9.10;99.90;;;;;;5062071;28;20216;-63
2023/05/17 05:22:03;;;;;;;0.80;0.80;;;9.30;99.90;;;;;;5076491;28;20590;-63
2023/05/17 05:24:30;;;;;;;0.87;0.87;;;9.50;99.90;;;;;;5069021;28;20209;-63
2023/05/17 05:26:58;;;;;;;1.35;0.80;;;9.70;99.90;;;;;;5051380;28;20675;-63
2023/05/17 05:29:25;;;;;;;0.90;0.90;;;9.70;99.90;;;;;;5061229;28;20297;-62
2023/05/17 05:31:52;;;;;;;0.80;0.80;;;9.80;99.90;;;;;;5069357;28;20211;-64
2023/05/17 05:34:19;;;;;;;1.00;1.00;;;9.90;99.90;;;;;;5064171;28;20565;-64
2023/05/17 05:36:46;;;;;;;0.93;0.93;;;10.00;99.90;;;;;;5051492;28;20239;-64
2023/05/17 05:39:13;;;;;;;1.00;1.00;;;10.10;99.90;;;;;;5055263;28;20210;-63
2023/05/17 05:41:39;;;;;;;0.93;0.93;;;10.20;99.90;;;;;;5070867;28;20200;-62
2023/05/17 05:44:07;;;;;;;0.73;0.73;;;10.30;99.90;;;;;;5072899;28;20627;-59
2023/05/17 05:46:34;;;;;;;0.98;0.98;;;10.50;99.90;;;;;;5070113;28;20203;-61
2023/05/17 05:49:01;;;;;;;0.90;0.90;;;10.60;99.90;;;;;;5071889;28;20214;-61
2023/05/17 05:51:28;;;;;;;1.00;1.00;;;10.70;99.90;;;;;;5070948;28;20237;-61
2023/05/17 05:53:55;;;;;;;0.85;0.85;;;10.90;99.90;;;;;;5072420;28;20322;-61
2023/05/17 05:56:23;;;;;;;0.80;0.80;;;11.00;99.90;;;;;;5071648;28;20238;-60
2023/05/17 05:58:50;;;;;;;0.93;0.93;;;11.10;99.90;;;;;;5071213;28;20225;-60
2023/05/17 06:01:18;;;;;;;1.00;1.00;;;11.30;99.90;;;;;;5070336;28;20203;-61
2023/05/17 06:03:45;;;;;;;1.00;1.00;;;11.40;99.90;;;;;;5071137;28;20227;-61
2023/05/17 06:06:12;;;;;;;1.23;1.23;;;11.60;99.90;;;;;;5072272;28;20206;-61
2023/05/17 06:08:39;;;;;;;1.30;1.20;;;11.70;99.90;;;;;;5072369;28;20207;-60
2023/05/17 06:11:05;;;;;;;1.40;1.30;;;11.70;99.90;;;;;;5072387;28;20218;-62
2023/05/17 06:13:32;;;;;;;1.00;1.00;;;11.80;99.90;;;;;;5072975;28;20274;-60
2023/05/17 06:15:59;;;;;;;1.40;1.30;;;11.90;99.90;;;;;;5073146;28;20229;-60
2023/05/17 06:18:27;;;;;;;1.27;1.17;;;12.10;99.90;;;;;;5073178;28;20234;-60
2023/05/17 06:20:54;;;;;;;0.95;0.95;;;12.20;99.90;;;;;;5072165;28;20203;-61
2023/05/17 06:23:21;;;;;;;0.95;0.90;;;12.20;99.90;;;;;;5072156;28;20227;-60
2023/05/17 06:25:48;;;;;;;1.00;1.00;;;12.20;99.90;;;;;;5072692;28;20598;-61
2023/05/17 06:28:15;;;;;;;1.15;1.05;;;12.40;99.90;;;;;;5075848;28;20209;-61
2023/05/17 06:30:42;;;;;;;1.10;1.10;;;12.50;99.90;;;;;;5075065;28;20299;-62
2023/05/17 06:33:09;;;;;;;1.30;1.20;;;12.50;99.90;;;;;;5075704;28;20318;-63
2023/05/17 06:35:38;;;;;;;1.30;1.20;;;12.70;99.90;;;;;;5075481;28;20219;-60
2023/05/17 06:38:05;;;;;;;1.00;1.00;;;12.80;99.90;;;;;;5075209;28;20210;-61
2023/05/17 06:40:32;;;;;;;0.90;0.90;;;13.00;99.90;;;;;;5074302;28;20709;-61
2023/05/17 06:43:00;;;;;;;1.25;1.17;;;13.10;99.90;;;;;;5074488;28;20227;-61
2023/05/17 06:45:28;;;;;;;1.30;1.20;;;13.40;99.90;;;;;;5074505;28;20211;-60
2023/05/17 06:47:54;;;;;;;1.02;1.02;;;13.50;99.90;;;;;;5075181;28;20252;-60
2023/05/17 06:50:21;;;;;;;1.38;1.27;;;13.30;99.90;;;;;;5073678;28;20214;-62
2023/05/17 06:52:49;;;;;;;1.20;1.10;;;13.40;99.90;;;;;;5074653;28;20229;-62
2023/05/17 06:55:16;;;;;;;1.30;1.20;;;13.60;99.90;;;;;;5074356;28;20214;-62
2023/05/17 06:57:43;;;;;;;1.05;1.05;;;13.50;99.90;;;;;;5074199;28;20209;-62
2023/05/17 07:00:11;;;;;;;1.08;1.08;;;13.10;99.90;;;;;;5073498;28;20214;-61
2023/05/17 07:02:38;;;;;;;1.30;1.17;;;13.10;99.90;;;;;;5074608;28;20314;-61
2023/05/17 07:05:06;;;;;;;1.10;1.10;;;13.30;99.90;;;;;;5074541;28;20207;-62
2023/05/17 07:07:33;;;;;;;0.90;0.90;;;13.50;99.90;;;;;;5074672;28;20199;-61
2023/05/17 07:10:01;;;;;;;1.13;1.10;;;13.50;99.90;;;;;;5073932;28;20213;-61
2023/05/17 07:12:28;;;;;;;1.17;1.17;;;13.60;99.90;;;;;;5074239;28;20230;-61
2023/05/17 07:14:54;;;;;;;1.00;1.00;;;13.90;99.90;;;;;;5075070;28;20208;-61
2023/05/17 07:17:21;;;;;;;0.90;0.90;;;14.10;99.90;;;;;;5075055;28;20717;-61
2023/05/17 07:19:49;;;;;;;1.40;1.20;;;13.90;99.90;;;;;;5075090;28;20211;-61
2023/05/17 07:22:16;;;;;;;1.10;1.10;;;13.60;99.90;;;;;;5076162;28;20207;-61
2023/05/17 07:24:43;;;;;;;0.90;0.90;;;13.60;99.90;;;;;;5074623;28;20207;-63
2023/05/17 07:27:12;;;;;;;1.57;1.30;;;13.50;99.90;;;;;;5074005;28;20203;-61
2023/05/17 07:29:40;;;;;;;1.10;1.10;;;13.60;99.90;;;;;;5073198;28;20705;-61
2023/05/17 07:32:08;;;;;;;1.33;1.20;;;13.70;99.90;;;;;;5074072;28;20211;-61
2023/05/17 07:34:35;;;;;;;1.23;1.23;;;13.50;99.90;;;;;;5073821;28;20207;-61
2023/05/17 07:37:02;;;;;;;0.95;0.95;;;13.30;99.90;;;;;;5073273;28;20603;-61
2023/05/17 07:39:28;;;;;;;1.00;1.00;;;13.20;99.90;;;;;;5072783;28;20207;-61
2023/05/17 07:41:55;;;;;;;1.30;1.20;;;13.20;99.90;;;;;;5074046;28;20307;-61
2023/05/17 07:44:23;;;;;;;1.33;1.20;;;13.10;99.90;;;;;;5073720;28;20257;-63
2023/05/17 07:46:50;;;;;;;1.75;1.30;;;13.00;99.90;;;;;;5073724;28;20199;-61
2023/05/17 07:49:17;;;;;;;1.10;1.10;;;13.00;99.90;;;;;;5072692;28;20211;-62
2023/05/17 07:51:44;;;;;;;1.40;1.30;;;13.10;99.90;;;;;;5073732;28;20209;-61
2023/05/17 07:54:21;;;;;;;1.30;1.20;;;13.30;99.90;;;;;;5073530;28;20635;-61
2023/05/17 07:56:48;;;;;;;1.40;1.30;;;13.70;99.90;;;;;;5077043;28;20252;-61
2023/05/17 07:59:15;;;;;;;1.00;1.00;;;14.10;99.90;;;;;;5073190;28;20203;-61
2023/05/17 08:01:43;;;;;;;1.48;1.42;;;14.20;99.90;;;;;;5073221;28;20942;-61
2023/05/17 08:04:12;;;;;;;1.40;1.30;;;14.10;99.90;;;;;;5073461;28;20233;-61
2023/05/17 08:06:39;;;;;;;1.00;1.00;;;14.30;99.90;;;;;;5074860;28;20607;-62
2023/05/17 08:09:06;;;;;;;1.05;0.98;;;14.50;99.90;;;;;;5073813;28;20839;-62
2023/05/17 08:11:33;;;;;;;1.15;1.15;;;14.60;99.90;;;;;;5073188;28;20210;-61
2023/05/17 08:14:00;;;;;;;1.17;1.10;;;14.70;99.90;;;;;;5073135;28;20235;-62
2023/05/17 08:16:27;;;;;;;1.20;1.20;;;14.80;99.90;;;;;;5073192;28;20223;-62
2023/05/17 08:18:55;;;;;;;1.20;1.20;;;14.90;99.90;;;;;;5073125;28;20205;-61
2023/05/17 08:21:23;;;;;;;1.00;1.00;;;15.00;99.90;;;;;;5071792;28;20207;-61
2023/05/17 08:23:50;;;;;;;1.23;1.13;;;15.10;99.90;;;;;;5073061;28;20313;-60
2023/05/17 08:26:17;;;;;;;1.17;1.17;;;15.20;99.90;;;;;;5073250;28;20667;-60
2023/05/17 08:28:44;;;;;;;1.50;1.40;;;15.20;99.90;;;;;;5073185;28;20583;-62
2023/05/17 08:31:11;;;;;;;1.10;1.10;;;15.20;99.90;;;;;;5072162;28;20214;-62
2023/05/17 08:33:38;;;;;;;1.20;1.20;;;15.20;99.90;;;;;;5072779;28;20312;-63
2023/05/17 08:36:07;;;;;;;1.30;1.20;;;15.00;99.90;;;;;;5073038;28;20878;-61
2023/05/17 08:38:34;;;;;;;1.30;1.20;;;14.70;99.90;;;;;;5072997;28;20302;-61
2023/05/17 08:41:01;;;;;;;1.50;1.40;;;14.20;99.90;;;;;;5072664;28;20293;-61
2023/05/17 08:43:30;;;;;;;1.10;1.10;;;14.00;99.90;;;;;;5073110;28;20238;-62
2023/05/17 08:45:58;;;;;;;1.42;1.33;;;14.00;99.90;;;;;;5074623;28;20204;-61
2023/05/17 08:48:26;;;;;;;1.10;1.10;;;14.10;99.90;;;;;;5071860;28;20261;-61
2023/05/17 08:50:55;;;;;;;1.33;1.20;;;14.10;99.90;;;;;;5072763;28;20273;-61
2023/05/17 08:53:23;;;;;;;1.20;1.20;;;14.20;99.90;;;;;;5072804;28;20229;-62
2023/05/17 08:55:53;;;;;;;1.40;1.30;;;14.20;99.90;;;;;;5073046;28;20203;-63
2023/05/17 08:58:27;;;;;;;1.40;1.30;;;14.20;99.90;;;;;;5073037;28;20213;-62
2023/05/17 09:00:56;;;;;;;1.40;1.30;;;14.30;99.90;;;;;;5071759;28;20206;-63
2023/05/17 09:03:24;;;;;;;1.40;1.30;;;14.10;99.90;;;;;;5071767;28;20230;-62
2023/05/17 09:05:52;;;;;;;1.30;1.30;;;14.20;99.90;;;;;;5072227;28;20205;-62
2023/05/17 09:08:20;;;;;;;1.40;1.23;;;14.00;99.90;;;;;;5072061;28;20203;-62
2023/05/17 09:10:48;;;;;;;1.30;1.20;;;13.90;99.90;;;;;;5071426;28;20276;-63
2023/05/17 09:13:15;;;;;;;3.50;1.30;;;13.90;99.90;;;;;;5071552;28;20235;-64
2023/05/17 09:15:43;;;;;;;1.50;1.40;;;13.80;99.90;;;;;;5072037;28;20215;-62
2023/05/17 09:18:11;;;;;;;1.33;1.30;;;13.80;99.90;;;;;;5071888;28;20227;-64
2023/05/17 09:20:39;;;;;;;1.60;1.35;;;13.90;99.90;;;;;;5071014;28;20261;-62
2023/05/17 09:23:08;;;;;;;1.17;1.17;;;14.10;99.90;;;;;;5071328;28;20227;-63
2023/05/17 09:25:35;;;;;;;1.23;1.13;;;14.30;99.90;;;;;;5071714;28;20211;-62
2023/05/17 09:28:06;;;;;;;1.10;1.10;;;14.20;99.90;;;;;;5071844;28;20209;-62
2023/05/17 09:30:36;;;;;;;1.08;1.02;;;14.20;99.90;;;;;;5070968;28;20256;-63
2023/05/17 09:33:06;;;;;;;0.93;0.93;;;14.30;99.90;;;;;;5071179;28;20828;-62
2023/05/17 09:35:34;;;;;;;1.08;1.08;;;14.50;99.90;;;;;;5071730;28;20207;-63
2023/05/17 09:38:07;;;;;;;1.10;1.00;;;14.50;99.90;;;;;;5071561;28;20584;-62
2023/05/17 09:40:38;;;;;;;0.80;0.80;;;14.50;99.90;;;;;;5070585;28;20225;-62
2023/05/17 09:43:06;;;;;;;0.98;0.98;;;14.70;99.90;;;;;;5071605;28;20248;-62
2023/05/17 09:45:33;;;;;;;1.23;1.13;;;15.30;99.90;;;;;;5071894;28;20227;-62
2023/05/17 09:48:12;;;;;;;1.15;1.15;;;15.40;99.90;;;;;;5071561;28;20266;-63
2023/05/17 09:50:43;;;;;;;1.17;1.08;;;15.30;99.90;;;;;;5070598;28;20211;-63
2023/05/17 09:53:23;;;;;;;1.00;1.00;;;15.10;99.90;;;;;;5071392;28;20246;-63
2023/05/17 09:55:52;;;;;;;1.20;1.20;;;14.80;99.90;;;;;;5071575;28;20221;-64
2023/05/17 09:58:21;;;;;;;1.00;1.00;;;14.70;99.90;;;;;;5071338;28;20238;-64
2023/05/17 10:00:53;;;;;;;1.00;1.00;;;14.60;99.90;;;;;;5070221;28;20309;-63
2023/05/17 10:03:21;;;;;;;1.00;1.00;;;14.60;99.90;;;;;;5071190;28;20223;-62
2023/05/17 10:05:50;;;;;;;1.25;1.25;;;14.70;99.90;;;;;;5071395;28;20529;-61
2023/05/17 10:08:21;;;;;;;1.60;1.50;;;14.60;99.90;;;;;;5071295;28;20214;-63
2023/05/17 10:10:49;;;;;;;1.40;1.30;;;14.60;99.90;;;;;;5070650;28;20207;-63
2023/05/17 10:13:18;;;;;;;1.60;1.50;;;14.60;99.90;;;;;;5071240;28;20246;-62
2023/05/17 10:15:48;;;;;;;1.42;1.33;;;14.60;99.90;;;;;;5071527;28;20199;-63
2023/05/17 10:18:17;;;;;;;1.10;1.10;;;14.60;99.90;;;;;;5071820;28;20656;-63
2023/05/17 10:20:44;;;;;;;1.20;1.20;;;14.80;99.90;;;;;;5072010;28;20203;-63
2023/05/17 10:23:13;;;;;;;1.48;1.38;;;14.90;99.90;;;;;;5071434;28;20227;-63
2023/05/17 10:25:40;;;;;;;1.88;1.27;;;15.00;99.90;;;;;;5071162;28;20257;-63
2023/05/17 10:28:07;;;;;;;1.50;1.40;;;15.00;99.90;;;;;;5071677;28;20209;-63
2023/05/17 10:30:35;;;;;;;1.10;1.10;;;15.00;99.90;;;;;;5070223;28;20203;-63
2023/05/17 10:33:04;;;;;;;1.10;1.10;;;15.10;99.90;;;;;;5071037;28;20223;-62
2023/05/17 10:35:33;;;;;;;1.08;1.08;;;15.10;99.90;;;;;;5070872;28;20206;-62
2023/05/17 10:38:00;;;;;;;1.33;1.30;;;15.00;99.90;;;;;;5070956;28;20223;-63
2023/05/17 10:40:29;;;;;;;1.27;1.27;;;14.90;99.90;;;;;;5070041;28;20199;-64
2023/05/17 10:42:57;;;;;;;1.40;1.30;;;15.20;99.90;;;;;;5071553;28;20710;-62
2023/05/17 10:45:25;;;;;;;1.10;1.10;;;15.50;99.90;;;;;;5072463;28;20692;-63
2023/05/17 10:47:52;;;;;;;1.20;1.20;;;15.70;99.90;;;;;;5075062;28;20199;-63
2023/05/17 10:50:23;;;;;;;1.33;1.23;;;16.00;99.90;;;;;;5074264;28;20218;-63
2023/05/17 10:52:51;;;;;;;1.50;1.40;;;16.10;99.90;;;;;;5073795;28;20233;-63
2023/05/17 10:55:20;;;;;;;1.10;1.10;;;16.00;99.90;;;;;;5073480;28;20215;-63
2023/05/17 10:58:08;;;;;;;1.40;1.30;;;15.90;99.90;;;;;;5072709;28;20223;-63
2023/05/17 11:00:39;;;;;;;1.10;1.10;;;15.90;99.90;;;;;;5071654;28;20188;-64
2023/05/17 11:03:15;;;;;;;1.17;1.10;;;16.00;99.90;;;;;;5072028;28;20698;-62
2023/05/17 11:05:45;;;;;;;1.00;1.00;;;16.50;99.90;;;;;;5075196;28;20203;-63
2023/05/17 11:08:16;;;;;;;1.10;1.10;;;16.90;99.90;;;;;;5077071;28;20641;-63
2023/05/17 11:11:09;;;;;;;1.40;1.30;;;16.80;99.90;;;;;;5076632;28;20214;-63
2023/05/17 11:13:44;;;;;;;1.50;1.40;;;16.60;99.90;;;;;;5081665;28;20227;-62
2023/05/17 11:16:15;;;;;;;1.20;1.20;;;16.40;99.90;;;;;;5076687;28;20207;-63
2023/05/17 11:18:49;;;;;;;1.65;1.42;;;16.20;99.90;;;;;;5075481;28;20235;-63
2023/05/17 11:21:18;;;;;;;1.40;1.30;;;16.20;99.90;;;;;;5075262;28;20218;-62
2023/05/17 11:23:46;;;;;;;1.55;1.45;;;16.30;99.90;;;;;;5074236;28;20265;-64
2023/05/17 11:26:17;;;;;;;1.63;1.52;;;16.20;99.90;;;;;;5074119;28;20306;-64
2023/05/17 11:28:44;;;;;;;1.60;1.50;;;15.90;99.90;;;;;;5074244;28;20203;-64
2023/05/17 11:31:11;;;;;;;1.48;1.38;;;15.80;99.90;;;;;;5073451;28;20237;-63
2023/05/17 11:33:41;;;;;;;1.23;1.23;;;16.30;99.90;;;;;;5074004;28;20230;-62
2023/05/17 11:36:18;;;;;;;1.25;1.25;;;16.60;99.90;;;;;;5074460;28;20273;-63
2023/05/17 11:38:47;;;;;;;1.38;1.30;;;16.50;99.90;;;;;;5074128;28;20548;-64
2023/05/17 11:41:20;;;;;;;2.05;1.85;;;16.40;99.90;;;;;;5073104;28;20211;-62
2023/05/17 11:43:48;;;;;;;1.20;1.20;;;16.40;99.90;;;;;;5073635;28;20247;-64
2023/05/17 11:46:22;;;;;;;1.20;1.20;;;16.30;99.90;;;;;;5073755;28;20204;-63
2023/05/17 11:48:51;;;;;;;1.37;1.27;;;16.40;99.90;;;;;;5073590;28;20306;-64
2023/05/17 11:51:20;;;;;;;1.47;1.30;;;16.40;99.90;;;;;;5072920;28;20298;-63
2023/05/17 11:53:47;;;;;;;1.95;1.70;;;16.60;99.90;;;;;;5073403;28;20230;-64
2023/05/17 11:56:15;;;;;;;1.17;1.17;;;16.50;99.90;;;;;;5074003;28;20203;-64
2023/05/17 11:58:43;;;;;;;1.13;1.10;;;16.60;99.90;;;;;;5073576;28;20314;-63
2023/05/17 12:01:10;;;;;;;1.23;1.23;;;16.70;99.90;;;;;;5072829;28;20211;-64
2023/05/17 12:03:36;;;;;;;1.77;1.60;;;16.90;99.90;;;;;;5073583;28;20231;-64
2023/05/17 12:06:06;;;;;;;1.20;1.20;;;16.80;99.90;;;;;;5073552;28;20215;-64
2023/05/17 12:08:36;;;;;;;1.40;1.30;;;16.80;99.90;;;;;;5073075;28;20203;-64
2023/05/17 12:11:04;;;;;;;2.17;1.90;;;16.80;99.90;;;;;;5072579;28;20218;-64
2023/05/17 12:13:32;;;;;;;1.50;1.40;;;16.80;99.90;;;;;;5072951;28;21057;-63
2023/05/17 12:16:02;;;;;;;1.20;1.20;;;16.60;99.90;;;;;;5076754;28;20213;-62
2023/05/17 12:18:36;;;;;;;1.27;1.27;;;16.40;99.90;;;;;;5073668;28;20268;-63
2023/05/17 12:21:04;;;;;;;1.42;1.33;;;16.60;99.90;;;;;;5072581;28;20232;-63
2023/05/17 12:23:32;;;;;;;1.52;1.42;;;16.60;99.90;;;;;;5072958;28;20606;-63
2023/05/17 12:26:08;;;;;;;1.92;1.50;;;16.70;99.90;;;;;;5073305;28;20588;-63
2023/05/17 12:28:36;;;;;;;1.63;1.50;;;16.70;99.90;;;;;;5073219;28;20740;-63
2023/05/17 12:31:05;;;;;;;1.20;1.20;;;16.80;99.90;;;;;;5072248;28;20242;-63
2023/05/17 12:33:33;;;;;;;1.60;1.50;;;16.80;99.90;;;;;;5073711;28;20227;-64
2023/05/17 12:36:02;;;;;;;2.20;1.45;;;16.80;99.90;;;;;;5073685;28;20664;-62
2023/05/17 12:38:32;;;;;;;1.38;1.25;;;16.80;99.90;;;;;;5073181;28;20713;-68
2023/05/17 12:41:03;;;;;;;1.60;1.50;;;16.80;99.90;;;;;;5072121;28;20290;-62
2023/05/17 12:43:33;;;;;;;1.70;1.50;;;17.20;99.90;;;;;;5072679;28;20242;-64
2023/05/17 12:46:05;;;;;;;2.35;1.60;;;17.10;99.90;;;;;;5072400;28;20223;-62
2023/05/17 12:48:34;;;;;;;1.52;1.42;;;17.30;99.90;;;;;;5072883;28;20203;-61
2023/05/17 12:51:06;;;;;;;2.13;1.42;;;17.30;99.90;;;;;;5071998;28;20207;-61
2023/05/17 12:53:38;;;;;;;2.15;2.05;;;17.00;99.90;;;;;;5063284;28;20231;-65
2023/05/17 12:56:06;;;;;;;1.40;1.30;;;16.70;99.90;;;;;;5062562;28;20195;-62